Meherrin, Virginia
Current Conditions -  °F | °C
As of 2:55 PM on Monday 22 Dec 2014 (Local Time) from KW31 Reporting Station
Overcast Overcast  
Wind Chill: 31°   Ceiling: 400
Heat Index: 36°   Visibility: 3mi
Dew Point: 35°   Wind: 6mph
Humidity: 97%   Direction: 20°NNE
Pressure: 30.08"   Gusts: NA
Location:  37.1°N, 78.37°W
Report Text: KW31 221955Z AUTO 02005KT 3SM OVC004 02/02 A3008 RMK AO1 T00220017
Loading
Personal Weather Stations






























Interactive Weather Map New forecast layout! Learn more

10-Day Weather Forecast

Advertisements
Track Severe Weather on mobile